createdAt,value
2022-11-16T00:02:12.740Z,6.45
2022-11-16T00:04:39.123Z,6.46
2022-11-16T00:07:06.192Z,6.45
2022-11-16T00:09:32.963Z,6.42
2022-11-16T00:12:01.000Z,6.44
2022-11-16T00:14:28.801Z,6.45
2022-11-16T00:16:55.486Z,6.43
2022-11-16T00:19:21.987Z,6.44
2022-11-16T00:21:48.310Z,6.46
2022-11-16T00:24:16.013Z,6.47
2022-11-16T00:26:42.389Z,6.47
2022-11-16T00:29:19.353Z,6.46
2022-11-16T00:31:46.060Z,6.47
2022-11-16T00:34:12.826Z,6.49
2022-11-16T00:36:39.367Z,6.52
2022-11-16T00:39:05.664Z,6.54
2022-11-16T00:41:31.957Z,6.56
2022-11-16T00:43:58.234Z,6.57
2022-11-16T00:46:24.558Z,6.56
2022-11-16T00:48:50.840Z,6.57
2022-11-16T00:51:17.123Z,6.57
2022-11-16T00:53:43.425Z,6.60
2022-11-16T00:56:09.713Z,6.63
2022-11-16T00:58:36.257Z,6.60
2022-11-16T01:01:03.951Z,6.62
2022-11-16T01:03:30.279Z,6.63
2022-11-16T01:06:03.133Z,6.65
2022-11-16T01:08:29.440Z,6.65
2022-11-16T01:10:55.752Z,6.69
2022-11-16T01:13:22.047Z,6.65
2022-11-16T01:15:48.453Z,6.63
2022-11-16T01:18:14.731Z,6.63
2022-11-16T01:20:41.253Z,6.63
2022-11-16T01:23:07.599Z,6.62
2022-11-16T01:25:33.952Z,6.65
2022-11-16T01:28:00.254Z,6.64
2022-11-16T01:30:26.576Z,6.61
2022-11-16T01:32:52.862Z,6.61
2022-11-16T01:35:19.190Z,6.59
2022-11-16T01:37:45.614Z,6.59
2022-11-16T01:40:12.786Z,6.58
2022-11-16T01:42:39.133Z,6.64
2022-11-16T01:45:16.733Z,6.55
2022-11-16T01:47:43.350Z,6.54
2022-11-16T01:50:12.650Z,6.56
2022-11-16T01:52:42.695Z,6.52
2022-11-16T01:55:09.869Z,6.48
2022-11-16T01:57:37.868Z,6.48
2022-11-16T02:00:06.591Z,6.47
2022-11-16T02:02:33.000Z,6.47
2022-11-16T02:04:59.690Z,6.46
2022-11-16T02:08:03.031Z,6.43
2022-11-16T02:10:48.297Z,6.41
2022-11-16T02:13:14.629Z,6.47
2022-11-16T02:15:46.227Z,6.38
2022-11-16T02:18:31.540Z,6.37
2022-11-16T02:20:58.073Z,6.36
2022-11-16T02:23:27.441Z,6.33
2022-11-16T02:26:02.993Z,6.30
2022-11-16T02:28:44.374Z,6.31
2022-11-16T02:31:13.986Z,6.30
2022-11-16T02:33:41.527Z,6.27
2022-11-16T02:36:10.037Z,6.24
2022-11-16T02:38:38.846Z,6.22
2022-11-16T02:41:08.362Z,6.26
2022-11-16T02:43:38.417Z,6.25
2022-11-16T02:46:08.463Z,6.30
2022-11-16T02:48:36.904Z,6.26
2022-11-16T02:51:06.387Z,6.22
2022-11-16T02:53:36.862Z,6.19
2022-11-16T02:56:03.166Z,6.17
2022-11-16T02:58:29.963Z,6.18
2022-11-16T03:01:00.493Z,6.18
2022-11-16T03:03:29.582Z,6.16
2022-11-16T03:06:04.613Z,6.18
2022-11-16T03:08:33.571Z,6.17
2022-11-16T03:11:21.685Z,6.17
2022-11-16T03:13:48.562Z,6.15
2022-11-16T03:16:24.613Z,6.18
2022-11-16T03:18:52.398Z,6.17
2022-11-16T03:21:25.766Z,6.17
2022-11-16T03:23:52.141Z,6.15
2022-11-16T03:26:21.101Z,6.15
2022-11-16T03:28:55.233Z,6.18
2022-11-16T03:31:26.590Z,6.18
2022-11-16T03:33:56.083Z,6.16
2022-11-16T03:36:33.665Z,6.16
2022-11-16T03:39:02.781Z,6.18
2022-11-16T03:41:31.045Z,6.27
2022-11-16T03:43:58.341Z,6.19
2022-11-16T03:46:24.791Z,6.16
2022-11-16T03:48:56.761Z,6.16
2022-11-16T03:51:23.103Z,6.17
2022-11-16T03:53:49.373Z,6.15
2022-11-16T03:56:15.666Z,6.16
2022-11-16T03:58:41.967Z,6.15
2022-11-16T04:01:08.374Z,6.17
2022-11-16T04:03:34.721Z,6.16
2022-11-16T04:06:19.624Z,6.16
2022-11-16T04:09:04.474Z,6.15
2022-11-16T04:14:47.498Z,6.18
2022-11-16T04:17:33.240Z,6.14
2022-11-16T04:20:18.571Z,6.14
2022-11-16T04:23:23.750Z,6.12
2022-11-16T04:25:51.260Z,6.14
2022-11-16T04:28:19.760Z,6.15
2022-11-16T04:31:09.465Z,6.15
2022-11-16T04:33:54.757Z,6.14
2022-11-16T04:36:40.170Z,6.16
2022-11-16T04:39:06.888Z,6.16
2022-11-16T04:41:52.035Z,6.19
2022-11-16T04:44:18.715Z,6.17
2022-11-16T04:47:03.942Z,6.18
2022-11-16T04:49:30.209Z,6.14
2022-11-16T04:51:56.494Z,6.15
2022-11-16T04:54:23.035Z,6.10
2022-11-16T04:56:49.362Z,6.15
2022-11-16T04:59:15.739Z,6.14
2022-11-16T05:02:00.783Z,6.05
2022-11-16T05:04:27.186Z,6.03
2022-11-16T05:06:53.520Z,6.01
2022-11-16T05:09:19.974Z,5.97
2022-11-16T05:11:46.294Z,5.96
2022-11-16T05:14:12.655Z,5.98
2022-11-16T05:16:38.924Z,5.94
2022-11-16T05:19:24.036Z,5.94
2022-11-16T05:21:50.315Z,5.93
2022-11-16T05:24:34.625Z,5.92
2022-11-16T05:27:05.372Z,5.94
2022-11-16T05:29:31.768Z,5.94
2022-11-16T05:31:58.546Z,5.94
2022-11-16T05:34:24.915Z,5.95
2022-11-16T05:36:51.352Z,5.89
2022-11-16T05:39:17.788Z,5.86
2022-11-16T05:41:44.071Z,5.87
2022-11-16T05:44:10.406Z,5.87
2022-11-16T05:46:36.716Z,5.92
2022-11-16T05:49:03.367Z,5.89
2022-11-16T05:51:29.661Z,5.91
2022-11-16T05:53:55.938Z,5.94
2022-11-16T05:56:22.250Z,5.96
2022-11-16T05:58:48.554Z,5.99
2022-11-16T06:01:14.844Z,5.98
2022-11-16T06:03:41.126Z,6.02
2022-11-16T06:06:07.496Z,5.99
2022-11-16T06:08:34.092Z,6.01
2022-11-16T06:11:01.819Z,5.99
2022-11-16T06:13:28.107Z,5.99
2022-11-16T06:15:54.387Z,6.02
2022-11-16T06:18:20.913Z,6.04
2022-11-16T06:20:47.674Z,6.05
2022-11-16T06:23:14.318Z,6.04
2022-11-16T06:25:40.593Z,6.08
2022-11-16T06:28:08.273Z,6.08
2022-11-16T06:30:34.843Z,6.05
2022-11-16T06:33:01.160Z,6.07
2022-11-16T06:35:27.467Z,6.06
2022-11-16T06:37:53.751Z,6.07
2022-11-16T06:40:20.045Z,6.06
2022-11-16T06:42:46.323Z,6.08
2022-11-16T06:45:12.612Z,6.06
2022-11-16T06:47:39.023Z,6.07
2022-11-16T06:50:05.488Z,6.08
2022-11-16T06:52:31.842Z,6.13
2022-11-16T06:54:58.124Z,6.13
2022-11-16T06:57:24.566Z,6.15
2022-11-16T06:59:50.838Z,6.14
2022-11-16T07:02:17.120Z,6.15
2022-11-16T07:04:44.337Z,6.15
2022-11-16T07:07:10.687Z,6.13
2022-11-16T07:09:37.003Z,6.14
2022-11-16T07:12:04.127Z,6.11
2022-11-16T07:14:30.393Z,6.13
2022-11-16T07:17:00.353Z,6.14
2022-11-16T07:19:27.405Z,6.21
2022-11-16T07:21:53.758Z,6.23
2022-11-16T07:24:20.060Z,6.24
2022-11-16T07:26:46.344Z,6.24
2022-11-16T07:29:13.741Z,6.23
2022-11-16T07:31:40.015Z,6.26
2022-11-16T07:34:06.292Z,6.24
2022-11-16T07:36:32.578Z,6.27
2022-11-16T07:38:58.893Z,6.27
2022-11-16T07:41:25.219Z,6.35
2022-11-16T07:43:53.331Z,6.36
2022-11-16T07:46:45.869Z,6.39
2022-11-16T07:49:11.367Z,6.42
2022-11-16T07:51:38.144Z,6.48
2022-11-16T07:54:04.430Z,6.46
2022-11-16T07:56:30.805Z,6.47
2022-11-16T07:58:57.242Z,6.50
2022-11-16T08:01:23.542Z,6.54
2022-11-16T08:03:52.338Z,6.55
2022-11-16T08:06:21.005Z,6.51
2022-11-16T08:08:47.303Z,6.52
2022-11-16T08:11:13.684Z,6.56
2022-11-16T08:13:41.011Z,6.60
2022-11-16T08:16:09.348Z,6.59
2022-11-16T08:18:36.882Z,6.60
2022-11-16T08:21:04.150Z,6.66
2022-11-16T08:23:31.179Z,6.65
2022-11-16T08:25:58.082Z,6.62
2022-11-16T08:28:24.371Z,6.67
2022-11-16T08:30:53.942Z,6.67
2022-11-16T08:33:21.423Z,6.75
2022-11-16T08:35:48.259Z,6.72
2022-11-16T08:38:14.825Z,6.72
2022-11-16T08:40:41.813Z,6.73
2022-11-16T08:43:08.132Z,6.75
2022-11-16T08:45:34.517Z,6.77
2022-11-16T08:48:03.934Z,6.78
2022-11-16T08:50:33.467Z,6.76
2022-11-16T08:53:06.180Z,6.80
2022-11-16T08:55:33.242Z,6.81
2022-11-16T08:57:59.547Z,6.80
2022-11-16T09:00:25.816Z,6.82
2022-11-16T09:02:52.102Z,6.75
2022-11-16T09:05:18.548Z,6.76
2022-11-16T09:07:45.751Z,6.74
2022-11-16T09:10:12.189Z,6.74
2022-11-16T09:12:38.943Z,6.72
2022-11-16T09:15:05.953Z,6.76
2022-11-16T09:17:32.523Z,6.73
2022-11-16T09:19:58.847Z,6.74
2022-11-16T09:22:25.152Z,6.77
2022-11-16T09:24:51.467Z,6.75
2022-11-16T09:27:17.824Z,6.74
2022-11-16T09:29:44.111Z,6.73
2022-11-16T09:32:10.402Z,6.75
2022-11-16T09:34:36.898Z,6.73
2022-11-16T09:37:03.216Z,6.70
2022-11-16T09:39:32.417Z,6.68
2022-11-16T09:42:11.862Z,6.67
2022-11-16T09:44:53.549Z,6.66
2022-11-16T09:47:24.798Z,6.63
2022-11-16T09:50:01.620Z,6.68
2022-11-16T09:52:32.508Z,6.70
2022-11-16T09:55:01.368Z,6.68
2022-11-16T09:57:31.199Z,6.74
2022-11-16T10:00:01.702Z,6.82
2022-11-16T10:02:44.056Z,6.80
2022-11-16T10:05:17.965Z,6.79
2022-11-16T10:07:49.122Z,6.72
2022-11-16T10:10:16.662Z,6.76
2022-11-16T10:12:48.986Z,6.78
2022-11-16T10:15:33.802Z,6.78
2022-11-16T10:18:03.229Z,6.76
2022-11-16T10:20:47.791Z,6.74
2022-11-16T10:23:30.265Z,6.76
2022-11-16T10:26:11.232Z,6.72
2022-11-16T10:28:47.016Z,6.71
2022-11-16T10:31:25.830Z,6.72
2022-11-16T10:33:54.345Z,6.69
2022-11-16T10:36:26.948Z,6.67
2022-11-16T10:38:55.353Z,6.66
2022-11-16T10:41:21.645Z,6.66
2022-11-16T10:43:48.334Z,6.70
2022-11-16T10:46:25.253Z,6.69
2022-11-16T10:49:16.314Z,6.69
2022-11-16T10:51:43.075Z,6.67
2022-11-16T10:54:16.209Z,6.68
2022-11-16T10:56:45.401Z,6.72
2022-11-16T10:59:15.636Z,6.68
2022-11-16T11:01:54.647Z,6.68
2022-11-16T11:04:21.001Z,6.67
2022-11-16T11:06:48.984Z,6.68
2022-11-16T11:09:20.379Z,6.68
2022-11-16T11:12:24.092Z,6.63
2022-11-16T11:15:07.731Z,6.66
2022-11-16T11:17:35.435Z,6.63
2022-11-16T11:20:04.362Z,6.64
2022-11-16T11:22:31.827Z,6.61
2022-11-16T11:24:58.606Z,6.62
2022-11-16T11:27:28.863Z,6.61
2022-11-16T11:29:58.585Z,6.62
2022-11-16T11:32:34.327Z,6.63
2022-11-16T11:35:01.875Z,6.63
2022-11-16T11:37:33.979Z,6.61
2022-11-16T11:40:09.248Z,6.61
2022-11-16T11:42:38.690Z,6.59
2022-11-16T11:45:09.041Z,6.58
2022-11-16T11:47:57.293Z,6.59
2022-11-16T11:50:41.182Z,6.57
2022-11-16T11:53:10.272Z,6.54
2022-11-16T11:55:36.634Z,6.52
2022-11-16T11:58:04.416Z,6.51
2022-11-16T12:00:36.427Z,6.55
2022-11-16T12:03:17.757Z,6.59
2022-11-16T12:05:50.047Z,6.57
2022-11-16T12:08:28.559Z,6.57
2022-11-16T12:11:09.844Z,6.52
2022-11-16T12:13:55.055Z,6.52
2022-11-16T12:16:28.393Z,6.49
2022-11-16T12:18:57.740Z,6.49
2022-11-16T12:21:27.145Z,6.52
2022-11-16T12:23:56.468Z,6.52
2022-11-16T12:26:37.866Z,6.54
2022-11-16T12:29:12.717Z,6.56
2022-11-16T12:31:39.213Z,6.54
2022-11-16T12:34:13.864Z,6.53
2022-11-16T12:36:55.574Z,6.54
2022-11-16T12:39:54.401Z,6.55
2022-11-16T12:42:38.865Z,6.56
2022-11-16T12:45:15.556Z,6.54
2022-11-16T12:47:47.725Z,6.53
2022-11-16T12:50:32.803Z,6.54
2022-11-16T12:53:08.354Z,6.54
2022-11-16T12:55:45.744Z,6.55
2022-11-16T12:58:20.935Z,6.54
2022-11-16T13:00:59.751Z,6.52
2022-11-16T13:03:33.544Z,6.51
2022-11-16T13:06:03.318Z,6.50
2022-11-16T13:08:35.491Z,6.49
2022-11-16T13:11:10.462Z,6.49
2022-11-16T13:13:38.983Z,6.48
2022-11-16T13:16:06.571Z,6.49
2022-11-16T13:18:34.601Z,6.48
2022-11-16T13:21:13.087Z,6.49
2022-11-16T13:23:39.333Z,6.50
2022-11-16T13:26:24.517Z,6.49
2022-11-16T13:28:56.259Z,6.47
2022-11-16T13:31:34.557Z,6.48
2022-11-16T13:34:06.690Z,6.48
2022-11-16T13:36:36.972Z,6.49
2022-11-16T13:39:04.503Z,6.49
2022-11-16T13:41:34.617Z,6.49
2022-11-16T13:44:02.416Z,6.47
2022-11-16T13:46:59.857Z,6.44
2022-11-16T13:49:26.268Z,6.45
2022-11-16T13:51:53.988Z,6.45
2022-11-16T13:57:46.475Z,6.45
2022-11-16T14:00:20.243Z,6.41
2022-11-16T14:02:47.291Z,6.44
2022-11-16T14:05:36.064Z,6.42
2022-11-16T14:08:22.340Z,6.40
2022-11-16T14:10:48.611Z,6.41
2022-11-16T14:13:30.017Z,6.39
2022-11-16T14:16:14.811Z,6.44
2022-11-16T14:18:41.669Z,6.42
2022-11-16T14:21:36.892Z,6.41
2022-11-16T14:24:20.914Z,6.39
2022-11-16T14:27:05.681Z,6.37
2022-11-16T14:29:50.443Z,6.36
2022-11-16T14:32:19.465Z,6.34
2022-11-16T14:34:47.188Z,6.30
2022-11-16T14:37:22.397Z,6.29
2022-11-16T14:39:53.275Z,6.21
2022-11-16T14:42:28.565Z,6.15
2022-11-16T14:45:02.414Z,6.03
2022-11-16T14:47:30.565Z,5.93
2022-11-16T14:49:57.414Z,5.87
2022-11-16T14:52:44.527Z,5.85
2022-11-16T14:55:17.762Z,5.82
2022-11-16T14:57:44.078Z,5.75
2022-11-16T15:00:18.576Z,5.73
2022-11-16T15:02:51.423Z,5.69
2022-11-16T15:05:20.156Z,5.67
2022-11-16T15:07:49.658Z,5.63
2022-11-16T15:10:18.116Z,5.62
2022-11-16T15:12:51.414Z,5.61
2022-11-16T15:15:21.402Z,5.61
2022-11-16T15:17:59.713Z,5.62
2022-11-16T15:20:27.436Z,5.65
2022-11-16T15:22:57.840Z,5.63
2022-11-16T15:25:25.641Z,5.62
2022-11-16T15:27:52.371Z,5.64
2022-11-16T15:30:20.361Z,5.65
2022-11-16T15:32:47.940Z,5.62
2022-11-16T15:35:22.524Z,5.62
2022-11-16T15:37:59.537Z,5.61
2022-11-16T15:40:26.020Z,5.61
2022-11-16T15:42:53.204Z,5.60
2022-11-16T15:45:24.803Z,5.58
2022-11-16T15:47:54.515Z,5.58
2022-11-16T15:50:23.280Z,5.56
2022-11-16T15:52:55.276Z,5.51
2022-11-16T15:55:28.686Z,5.45
2022-11-16T15:58:18.232Z,5.43
2022-11-16T16:00:47.404Z,5.40
2022-11-16T16:03:17.155Z,5.40
2022-11-16T16:05:43.700Z,5.38
2022-11-16T16:08:27.081Z,5.37
2022-11-16T16:11:04.368Z,5.34
2022-11-16T16:13:33.293Z,5.35
2022-11-16T16:16:18.663Z,5.38
2022-11-16T16:18:45.305Z,5.39
2022-11-16T16:21:12.487Z,5.42
2022-11-16T16:23:51.757Z,5.40
2022-11-16T16:26:18.265Z,5.40
2022-11-16T16:28:44.570Z,5.40
2022-11-16T16:31:11.493Z,5.39
2022-11-16T16:33:38.221Z,5.39
2022-11-16T16:36:04.799Z,5.38
2022-11-16T16:38:31.109Z,5.38
2022-11-16T16:41:02.498Z,5.43
2022-11-16T16:43:29.504Z,5.45
2022-11-16T16:45:56.194Z,5.46
2022-11-16T16:48:22.868Z,5.48
2022-11-16T16:50:49.500Z,5.51
2022-11-16T16:53:15.852Z,5.53
2022-11-16T16:55:43.110Z,5.64
2022-11-16T16:58:13.232Z,5.58
2022-11-16T17:00:40.023Z,5.55
2022-11-16T17:03:06.324Z,5.52
2022-11-16T17:05:33.895Z,5.55
2022-11-16T17:08:00.713Z,5.62
2022-11-16T17:10:27.000Z,5.56
2022-11-16T17:12:53.921Z,5.57
2022-11-16T17:15:20.293Z,5.56
2022-11-16T17:17:46.722Z,5.54
2022-11-16T17:20:13.347Z,5.54
2022-11-16T17:22:41.679Z,5.54
2022-11-16T17:25:08.537Z,5.52
2022-11-16T17:27:34.864Z,5.51
2022-11-16T17:30:01.153Z,5.52
2022-11-16T17:32:27.444Z,5.51
2022-11-16T17:34:53.796Z,5.53
2022-11-16T17:37:20.191Z,5.52
2022-11-16T17:39:46.518Z,5.52
2022-11-16T17:42:12.988Z,5.53
2022-11-16T17:44:39.354Z,5.52
2022-11-16T17:47:05.726Z,5.55
2022-11-16T17:49:32.011Z,5.49
2022-11-16T17:51:58.328Z,5.51
2022-11-16T17:54:24.614Z,5.51
2022-11-16T17:56:50.922Z,5.51
2022-11-16T17:59:17.250Z,5.48
2022-11-16T18:01:43.590Z,5.51
2022-11-16T18:04:09.945Z,5.49
2022-11-16T18:06:36.486Z,5.45
2022-11-16T18:09:02.872Z,5.41
2022-11-16T18:11:29.255Z,5.42
2022-11-16T18:14:00.469Z,5.38
2022-11-16T18:16:28.308Z,5.39
2022-11-16T18:18:55.962Z,5.37
2022-11-16T18:21:22.262Z,5.37
2022-11-16T18:23:48.578Z,5.37
2022-11-16T18:26:16.164Z,5.38
2022-11-16T18:28:44.455Z,5.44
2022-11-16T18:31:12.102Z,5.38
2022-11-16T18:33:38.840Z,5.32
2022-11-16T18:36:06.091Z,5.33
2022-11-16T18:38:32.656Z,5.32
2022-11-16T18:41:02.795Z,5.29
2022-11-16T18:43:29.093Z,5.30
2022-11-16T18:45:55.384Z,5.24
2022-11-16T18:48:21.671Z,5.23
2022-11-16T18:50:47.984Z,5.26
2022-11-16T18:53:14.278Z,5.26
2022-11-16T18:55:40.749Z,5.25
2022-11-16T18:58:22.833Z,5.30
2022-11-16T19:00:53.607Z,5.25
2022-11-16T19:03:19.897Z,5.25
2022-11-16T19:05:46.264Z,5.22
2022-11-16T19:08:14.130Z,5.23
2022-11-16T19:10:40.443Z,5.23
2022-11-16T19:13:07.138Z,5.24
2022-11-16T19:15:33.835Z,5.20
2022-11-16T19:18:21.767Z,5.18
2022-11-16T19:20:46.974Z,5.20
2022-11-16T19:23:13.262Z,5.20
2022-11-16T19:25:39.648Z,5.17
2022-11-16T19:28:05.930Z,5.19
2022-11-16T19:30:32.234Z,5.18
2022-11-16T19:32:59.498Z,5.21
2022-11-16T19:35:26.013Z,5.17
2022-11-16T19:37:52.327Z,5.15
2022-11-16T19:40:23.684Z,5.16
2022-11-16T19:42:52.556Z,5.18
2022-11-16T19:45:18.843Z,5.12
2022-11-16T19:47:45.185Z,5.09
2022-11-16T19:50:11.801Z,5.07
2022-11-16T19:52:38.253Z,5.03
2022-11-16T19:55:04.706Z,5.03
2022-11-16T19:57:31.005Z,5.00
2022-11-16T19:59:57.324Z,5.02
2022-11-16T20:02:23.648Z,4.98
2022-11-16T20:04:49.934Z,4.96
2022-11-16T20:07:18.090Z,4.96
2022-11-16T20:09:46.339Z,4.92
2022-11-16T20:12:15.584Z,4.88
2022-11-16T20:14:42.346Z,4.90
2022-11-16T20:17:08.796Z,4.86
2022-11-16T20:19:35.166Z,4.87
2022-11-16T20:22:01.453Z,4.84
2022-11-16T20:24:27.900Z,4.84
2022-11-16T20:26:54.232Z,4.84
2022-11-16T20:29:20.601Z,4.77
2022-11-16T20:31:47.037Z,4.70
2022-11-16T20:34:17.402Z,4.66
2022-11-16T20:36:44.881Z,4.62
2022-11-16T20:39:15.045Z,4.58
2022-11-16T20:41:42.838Z,4.51
2022-11-16T20:44:15.956Z,4.55
2022-11-16T20:46:44.230Z,4.47
2022-11-16T20:49:10.794Z,4.39
2022-11-16T20:51:37.140Z,4.34
2022-11-16T20:54:03.847Z,4.30
2022-11-16T20:56:30.283Z,4.22
2022-11-16T20:58:58.090Z,4.19
2022-11-16T21:01:28.334Z,4.10
2022-11-16T21:03:55.750Z,4.03
2022-11-16T21:06:22.072Z,4.01
2022-11-16T21:08:48.485Z,3.96
2022-11-16T21:11:19.446Z,3.96
2022-11-16T21:14:04.397Z,3.91
2022-11-16T21:16:31.234Z,3.89
2022-11-16T21:18:57.675Z,3.85
2022-11-16T21:21:24.980Z,3.84
2022-11-16T21:23:51.771Z,3.79
2022-11-16T21:26:19.553Z,3.73
2022-11-16T21:28:46.077Z,3.66
2022-11-16T21:31:13.980Z,3.63
2022-11-16T21:33:40.267Z,3.63
2022-11-16T21:36:07.887Z,3.59
2022-11-16T21:38:34.524Z,3.53
2022-11-16T21:41:01.084Z,3.51
2022-11-16T21:43:27.813Z,3.51
2022-11-16T21:46:00.675Z,3.52
2022-11-16T21:48:26.945Z,3.46
2022-11-16T21:51:02.728Z,3.46
2022-11-16T21:53:29.154Z,3.47
2022-11-16T21:55:55.471Z,3.50
2022-11-16T21:58:21.756Z,3.57
2022-11-16T22:00:48.142Z,3.63
2022-11-16T22:03:15.142Z,3.63
2022-11-16T22:06:00.097Z,3.68
2022-11-16T22:08:26.380Z,3.69
2022-11-16T22:10:52.988Z,3.71
2022-11-16T22:13:19.727Z,3.74
2022-11-16T22:15:46.115Z,3.76
2022-11-16T22:18:13.325Z,3.72
2022-11-16T22:20:39.791Z,3.65
2022-11-16T22:23:06.088Z,3.70
2022-11-16T22:25:32.482Z,3.65
2022-11-16T22:28:19.691Z,3.60
2022-11-16T22:30:50.070Z,3.59
2022-11-16T22:33:17.847Z,3.58
2022-11-16T22:35:46.421Z,3.59
2022-11-16T22:38:12.712Z,3.57
2022-11-16T22:40:38.989Z,3.58
2022-11-16T22:43:05.271Z,3.57
2022-11-16T22:45:31.567Z,3.52
2022-11-16T22:47:57.926Z,3.50
2022-11-16T22:50:24.303Z,3.47
2022-11-16T22:52:50.594Z,3.43
2022-11-16T22:55:16.985Z,3.41
2022-11-16T22:57:43.253Z,3.36
2022-11-16T23:00:09.954Z,3.36
2022-11-16T23:02:36.252Z,3.31
2022-11-16T23:05:02.526Z,3.17
2022-11-16T23:07:28.819Z,3.08
2022-11-16T23:09:55.113Z,3.03
2022-11-16T23:12:40.022Z,2.99
2022-11-16T23:15:27.822Z,2.89
2022-11-16T23:17:54.107Z,2.79
2022-11-16T23:20:38.831Z,2.77
2022-11-16T23:23:37.571Z,2.80
2022-11-16T23:26:24.325Z,2.73
2022-11-16T23:28:50.672Z,2.73
2022-11-16T23:31:16.956Z,2.67
2022-11-16T23:33:46.055Z,2.73
2022-11-16T23:36:12.660Z,2.70
2022-11-16T23:38:39.319Z,2.68
2022-11-16T23:41:24.967Z,2.68
2022-11-16T23:44:00.642Z,2.66
2022-11-16T23:46:27.945Z,2.63
2022-11-16T23:48:54.325Z,2.62
2022-11-16T23:51:20.652Z,2.60
2022-11-16T23:53:46.940Z,2.65
2022-11-16T23:56:13.226Z,2.64
2022-11-16T23:58:39.536Z,2.66
